Time;durP1;ratioP1;P1;durP2;ratioP2;P2;SDS_P1;SDS_P2;PMS_P1;PMS_P2;Temp;Humidity;BMP_temperature;BMP_pressure;BME280_temperature;BME280_humidity;BME280_pressure;Samples;Min_cycle;Max_cycle;Signal;HPM_P1;HPM_P2
2022/01/30 00:00:08;;;;;;;3.62;1.32;;;;;;;4.93;95.95;97535.47;1754314;81;20998;-40
2022/01/30 00:02:33;;;;;;;3.40;1.37;;;;;;;4.88;93.20;97526.27;1754227;82;20995;-40
2022/01/30 00:04:59;;;;;;;4.92;1.55;;;;;;;4.85;91.62;97572.02;1754392;81;21030;-40
2022/01/30 00:07:25;;;;;;;6.60;1.35;;;;;;;4.83;90.35;97534.34;1754454;82;20998;-40
2022/01/30 00:09:51;;;;;;;7.33;1.72;;;;;;;4.87;90.30;97520.67;1754300;81;21433;-40
2022/01/30 00:12:22;;;;;;;4.12;1.42;;;;;;;4.81;89.66;97528.39;1754433;82;21500;-40
2022/01/30 00:14:45;;;;;;;5.05;1.27;;;;;;;4.76;88.99;97540.37;1753541;82;20963;-40
2022/01/30 00:17:20;;;;;;;5.37;1.62;;;;;;;4.79;88.17;97543.27;1754276;82;21058;-40
2022/01/30 00:19:46;;;;;;;4.50;1.75;;;;;;;4.77;87.37;97516.02;1753152;82;20959;-47
2022/01/30 00:24:52;;;;;;;5.80;1.65;;;;;;;4.79;86.15;97535.46;1754046;82;20174;-40
2022/01/30 00:27:18;;;;;;;5.30;1.50;;;;;;;4.77;86.59;97539.45;1753326;80;20975;-40
2022/01/30 00:29:41;;;;;;;5.60;1.37;;;;;;;4.76;87.14;97540.37;1754397;81;20976;-40
2022/01/30 00:32:08;;;;;;;3.12;1.42;;;;;;;4.56;87.48;97545.45;1755346;81;20990;-40
2022/01/30 00:34:34;;;;;;;2.33;0.93;;;;;;;4.50;87.50;97556.72;1756166;81;21479;-40
2022/01/30 00:37:02;;;;;;;4.15;0.85;;;;;;;4.51;85.91;97568.78;1755802;81;20990;-39
2022/01/30 00:39:28;;;;;;;2.08;1.00;;;;;;;4.43;84.68;97565.33;1756082;82;20979;-40
2022/01/30 00:41:54;;;;;;;3.62;1.32;;;;;;;4.32;84.13;97552.94;1755944;81;20975;-40
2022/01/30 00:44:19;;;;;;;3.25;1.17;;;;;;;4.25;84.42;97609.33;1755906;82;20990;-39
2022/01/30 00:46:46;;;;;;;7.67;1.55;;;;;;;4.09;83.73;97597.17;1755885;81;21413;-40
2022/01/30 00:49:12;;;;;;;8.00;2.12;;;;;;;3.99;83.97;97614.23;1755934;80;21015;-40
2022/01/30 00:51:38;;;;;;;6.87;1.60;;;;;;;4.01;83.39;97568.16;1756338;82;21530;-40
2022/01/30 00:54:04;;;;;;;8.78;2.25;;;;;;;4.01;83.04;97608.48;1755938;80;21135;-39
2022/01/30 00:56:30;;;;;;;7.85;1.87;;;;;;;3.90;82.43;97584.84;1756364;82;20971;-39
2022/01/30 00:58:56;;;;;;;3.33;1.40;;;;;;;3.83;82.29;97585.16;1755956;81;20990;-40
2022/01/30 01:01:22;;;;;;;3.87;1.40;;;;;;;3.85;83.00;97601.51;1755980;82;21033;-41
2022/01/30 01:03:48;;;;;;;4.65;1.62;;;;;;;3.83;82.24;97592.13;1756012;82;20981;-40
2022/01/30 01:06:14;;;;;;;4.15;1.17;;;;;;;3.82;81.21;97589.14;1755902;82;20983;-39
2022/01/30 01:08:50;;;;;;;5.60;1.82;;;;;;;3.80;81.29;97603.55;1756066;82;20967;-40
2022/01/30 01:11:50;;;;;;;7.78;2.10;;;;;;;3.82;81.24;97599.10;1754680;82;20943;-40
2022/01/30 01:24:09;;;;;;;6.17;1.80;;;;;;;3.80;79.65;97600.95;1755762;80;21034;-40
2022/01/30 01:26:37;;;;;;;7.60;1.80;;;;;;;3.76;79.76;97580.39;1756107;81;21515;-40
2022/01/30 01:29:03;;;;;;;;;;;;;;;3.75;80.02;97578.26;1758647;82;20988;-40
2022/01/30 01:31:29;;;;;;;5.03;1.77;;;;;;;3.72;79.10;97561.52;1756294;81;20134;-40
2022/01/30 01:34:18;;;;;;;7.60;1.65;;;;;;;3.73;78.79;97557.15;1756015;82;21054;-40
2022/01/30 01:36:32;;;;;;;5.20;1.80;;;;;;;3.78;79.01;97564.23;1753415;82;20947;-40
2022/01/30 01:38:57;;;;;;;5.72;1.75;;;;;;;3.82;78.34;97552.30;1756082;82;21460;-40
2022/01/30 01:41:25;;;;;;;5.92;1.70;;;;;;;3.80;77.96;97550.25;1755904;82;21456;-40
2022/01/30 01:43:52;;;;;;;11.08;1.90;;;;;;;3.89;77.61;97538.94;1755666;82;20982;-40
2022/01/30 01:46:24;;;;;;;9.45;2.10;;;;;;;3.90;77.13;97532.36;1755768;81;20955;-40
2022/01/30 01:48:50;;;;;;;6.47;1.85;;;;;;;3.94;75.86;97516.95;1755287;80;20998;-40
2022/01/30 01:51:21;;;;;;;7.03;1.62;;;;;;;3.99;76.34;97517.53;1755851;81;20964;-40
2022/01/30 01:53:50;;;;;;;12.65;2.65;;;;;;;4.03;75.96;97512.52;1755563;82;21499;-39
2022/01/30 01:56:18;;;;;;;5.22;1.67;;;;;;;4.08;76.07;97513.57;1755999;82;20962;-40
2022/01/30 01:58:43;;;;;;;9.28;2.50;;;;;;;4.12;75.96;97498.15;1756047;82;20987;-40
2022/01/30 02:01:10;;;;;;;10.65;2.02;;;;;;;4.11;75.31;97506.90;1756050;82;20986;-39
2022/01/30 02:03:39;;;;;;;8.58;2.00;;;;;;;4.09;74.74;97481.88;1755827;80;21597;-40
2022/01/30 02:06:09;;;;;;;10.45;2.02;;;;;;;4.09;73.96;97485.31;1756119;80;20948;-39
2022/01/30 02:08:38;;;;;;;8.10;2.37;;;;;;;4.07;73.64;97474.16;1755923;80;20982;-40
2022/01/30 02:11:11;;;;;;;9.50;2.42;;;;;;;4.11;73.91;97465.72;1755623;82;20959;-40
2022/01/30 02:13:55;;;;;;;7.33;1.80;;;;;;;4.14;73.35;97452.06;1755417;82;20950;-40
2022/01/30 02:24:35;;;;;;;8.63;1.95;;;;;;;4.16;72.23;97455.41;1733988;81;20977;-40
2022/01/30 02:26:55;;;;;;;12.15;2.67;;;;;;;4.21;73.19;97462.48;1735568;81;20965;-40
2022/01/30 02:29:20;;;;;;;14.98;2.55;;;;;;;4.12;74.17;97486.92;1733928;81;21501;-40
2022/01/30 02:31:47;;;;;;;13.08;2.37;;;;;;;4.16;75.39;97493.14;1733981;83;20997;-40
2022/01/30 02:34:12;;;;;;;5.58;2.22;;;;;;;4.05;76.98;97478.63;1734131;82;21514;-40
2022/01/30 02:36:48;;;;;;;9.88;2.30;;;;;;;3.74;80.16;97515.47;1734161;81;20988;-40
2022/01/30 02:39:14;;;;;;;11.20;2.37;;;;;;;3.56;81.71;97486.61;1734060;81;20984;-40
2022/01/30 02:41:41;;;;;;;11.78;2.55;;;;;;;3.34;83.13;97477.41;1734101;83;21000;-40
2022/01/30 02:46:52;;;;;;;8.28;2.27;;;;;;;3.17;85.05;97471.02;1733706;83;21632;-40
2022/01/30 02:51:59;;;;;;;13.35;2.50;;;;;;;3.04;86.21;97470.37;1777771;80;21048;-40
2022/01/30 02:54:27;;;;;;;9.88;2.20;;;;;;;3.11;85.83;97454.44;1777798;79;20957;-40
2022/01/30 02:56:53;;;;;;;10.60;2.65;;;;;;;3.08;85.79;97464.55;1776873;80;20977;-40
2022/01/30 02:59:19;;;;;;;9.33;1.90;;;;;;;3.15;84.72;97455.98;1769016;79;21114;-41
2022/01/30 03:01:45;;;;;;;9.95;2.20;;;;;;;3.14;84.39;97451.69;1778204;81;20952;-40
2022/01/30 03:04:11;;;;;;;8.25;2.25;;;;;;;3.19;83.87;97470.47;1778554;81;21424;-40
2022/01/30 03:06:37;;;;;;;7.35;1.65;;;;;;;3.18;83.50;97441.50;1778449;80;20975;-40
2022/01/30 03:09:06;;;;;;;11.00;2.65;;;;;;;3.23;82.81;97469.37;1778443;81;20983;-40
2022/01/30 03:11:33;;;;;;;5.87;1.72;;;;;;;3.31;82.32;97475.00;1778552;81;21010;-40
2022/01/30 03:13:59;;;;;;;9.18;2.47;;;;;;;3.30;82.11;97456.42;1778435;81;20971;-40
2022/01/30 03:16:25;;;;;;;6.28;1.87;;;;;;;3.37;81.70;97472.52;1778580;81;20976;-40
2022/01/30 03:18:51;;;;;;;11.48;2.33;;;;;;;3.32;81.09;97435.55;1778446;81;20987;-40
2022/01/30 03:21:17;;;;;;;15.30;2.90;;;;;;;3.35;80.99;97465.27;1778431;81;20983;-40
2022/01/30 03:23:43;;;;;;;6.15;1.82;;;;;;;3.42;80.04;97457.05;1778448;81;20960;-40
2022/01/30 03:26:11;;;;;;;6.65;2.40;;;;;;;3.48;79.76;97442.87;1778455;81;21475;-40
2022/01/30 03:28:39;;;;;;;14.03;2.55;;;;;;;3.58;79.41;97444.47;1778579;81;20974;-40
2022/01/30 03:31:07;;;;;;;10.18;2.20;;;;;;;3.57;79.11;97427.22;1778353;80;21417;-41
2022/01/30 03:33:33;;;;;;;14.45;2.52;;;;;;;3.59;79.29;97395.01;1778364;80;20979;-41
2022/01/30 03:35:59;;;;;;;11.25;2.58;;;;;;;3.67;78.24;97417.95;1778436;81;21038;-40
2022/01/30 03:38:26;;;;;;;13.72;2.60;;;;;;;3.69;78.10;97410.91;1778642;80;21503;-39
2022/01/30 03:40:52;;;;;;;10.18;2.33;;;;;;;3.76;77.71;97432.20;1778883;81;20987;-40
2022/01/30 03:43:18;;;;;;;15.05;2.52;;;;;;;3.81;77.53;97417.17;1778563;81;21030;-39
2022/01/30 03:45:45;;;;;;;8.93;2.22;;;;;;;3.81;77.48;97438.80;1778535;81;20990;-41
2022/01/30 03:48:14;;;;;;;7.62;2.12;;;;;;;3.79;77.12;97400.36;1778693;81;21508;-40
2022/01/30 03:50:45;;;;;;;7.78;2.05;;;;;;;3.80;76.97;97399.44;1778570;81;20983;-40
2022/01/30 03:53:11;;;;;;;8.40;2.25;;;;;;;3.83;77.08;97391.92;1778604;81;21526;-40
2022/01/30 03:55:38;;;;;;;9.87;2.70;;;;;;;3.75;76.98;97388.47;1778929;81;21026;-40
2022/01/30 03:58:07;;;;;;;6.58;2.05;;;;;;;3.78;77.10;97404.34;1778680;81;21464;-40
2022/01/30 04:00:33;;;;;;;8.68;1.80;;;;;;;3.73;77.15;97394.23;1779972;80;21051;-39
2022/01/30 04:02:59;;;;;;;8.05;1.75;;;;;;;3.74;77.54;97393.28;1781574;80;20995;-40
2022/01/30 04:05:25;;;;;;;12.98;2.20;;;;;;;3.68;77.63;97399.31;1781538;80;21030;-40
2022/01/30 04:07:52;;;;;;;7.87;2.22;;;;;;;3.67;78.13;97388.06;1781583;80;21022;-40
2022/01/30 04:10:18;;;;;;;9.48;1.85;;;;;;;3.62;78.70;97403.08;1781831;80;21050;-40
2022/01/30 04:12:44;;;;;;;9.03;2.60;;;;;;;3.56;79.52;97386.08;1781540;80;20963;-40
2022/01/30 04:15:11;;;;;;;6.45;1.62;;;;;;;3.59;79.64;97380.71;1781567;80;21572;-40
2022/01/30 04:17:38;;;;;;;8.18;2.02;;;;;;;3.36;80.61;97354.73;1781728;80;20975;-40
2022/01/30 04:20:05;;;;;;;10.05;2.30;;;;;;;3.35;80.40;97342.69;1781696;80;21003;-40
2022/01/30 04:22:31;;;;;;;7.72;2.10;;;;;;;3.43;80.56;97356.53;1781708;80;21524;-40
2022/01/30 04:24:56;;;;;;;12.68;2.00;;;;;;;3.44;80.31;97372.52;1781715;80;21006;-40
2022/01/30 04:27:22;;;;;;;7.35;2.00;;;;;;;3.37;79.58;97381.11;1781484;80;21026;-40
2022/01/30 04:29:48;;;;;;;11.10;2.00;;;;;;;3.48;79.52;97370.58;1781543;80;20999;-40
2022/01/30 04:32:15;;;;;;;11.65;2.02;;;;;;;3.51;79.13;97402.86;1781558;80;20975;-40
2022/01/30 04:34:44;;;;;;;7.93;1.97;;;;;;;3.53;78.91;97378.92;1781815;80;20983;-40
2022/01/30 04:37:24;;;;;;;12.50;1.95;;;;;;;3.53;78.21;97397.11;1781442;80;20975;-40
2022/01/30 04:53:16;;;;;;;6.47;1.80;;;;;;;2.67;85.03;97364.63;1781684;80;21436;-39
2022/01/30 04:58:49;;;;;;;6.00;1.37;;;;;;;2.48;86.36;97375.62;1781681;80;20991;-40
2022/01/30 05:03:40;;;;;;;3.75;1.00;;;;;;;1.96;89.54;97384.34;1778517;81;21614;-40
2022/01/30 05:06:03;;;;;;;2.50;0.80;;;;;;;1.64;91.37;97376.92;1778370;81;20952;-40
2022/01/30 05:08:27;;;;;;;3.00;0.80;;;;;;;1.48;93.51;97375.54;1777735;81;20940;-39
2022/01/30 05:10:53;;;;;;;7.87;1.53;;;;;;;1.39;94.48;97431.21;1778740;81;21487;-39
2022/01/30 05:13:27;;;;;;;1.83;0.80;;;;;;;1.27;94.84;97390.36;1778775;81;20986;-39
2022/01/30 05:15:52;;;;;;;4.92;1.10;;;;;;;1.20;95.59;97361.80;1778429;80;20968;-39
2022/01/30 05:18:25;;;;;;;6.67;1.17;;;;;;;1.12;95.90;97360.88;1778740;81;21532;-39
2022/01/30 05:20:52;;;;;;;4.45;0.95;;;;;;;1.10;96.30;97354.94;1778612;81;21022;-39
2022/01/30 05:23:18;;;;;;;4.60;1.53;;;;;;;1.08;96.40;97365.36;1778730;81;21413;-39
2022/01/30 05:25:50;;;;;;;4.17;1.20;;;;;;;1.11;96.05;97346.23;1778447;80;21543;-39
2022/01/30 05:28:18;;;;;;;9.43;1.57;;;;;;;1.04;96.03;97334.07;1778488;80;20983;-39
2022/01/30 05:30:45;;;;;;;5.70;1.50;;;;;;;1.10;96.20;97340.23;1778553;80;20981;-39
2022/01/30 05:33:13;;;;;;;7.35;1.67;;;;;;;1.11;96.30;97338.05;1778679;81;21014;-39
2022/01/30 05:35:40;;;;;;;5.10;1.30;;;;;;;1.18;95.73;97336.44;1777730;81;21010;-39
2022/01/30 05:38:06;;;;;;;10.13;2.20;;;;;;;1.25;95.09;97336.52;1778593;80;20967;-39
2022/01/30 05:40:36;;;;;;;8.68;2.00;;;;;;;1.26;94.86;97330.44;1778455;81;21031;-39
2022/01/30 05:43:04;;;;;;;7.37;1.80;;;;;;;1.27;95.08;97339.40;1778506;80;21026;-40
2022/01/30 05:45:39;;;;;;;11.25;2.10;;;;;;;1.23;95.41;97322.81;1778513;81;21496;-40
2022/01/30 05:48:05;;;;;;;7.55;1.50;;;;;;;1.28;95.53;97318.25;1776746;81;21540;-39
2022/01/30 05:50:29;;;;;;;8.70;2.10;;;;;;;1.33;95.36;97322.28;1778354;80;21007;-40
2022/01/30 05:52:54;;;;;;;5.30;1.63;;;;;;;1.27;94.98;97319.16;1778666;81;21555;-40
2022/01/30 05:55:20;;;;;;;6.53;1.65;;;;;;;1.31;94.43;97305.13;1778469;80;20991;-40
2022/01/30 05:57:47;;;;;;;10.15;2.22;;;;;;;1.31;94.10;97302.11;1778505;81;21021;-40
2022/01/30 06:00:15;;;;;;;6.47;2.07;;;;;;;1.31;93.85;97289.59;1778967;80;20987;-40
2022/01/30 06:02:41;;;;;;;;;;;;;;;1.39;93.84;97286.18;1784452;80;20983;-39
2022/01/30 06:05:09;;;;;;;10.68;1.95;;;;;;;1.41;93.08;97277.88;1781903;80;20409;-39
2022/01/30 06:07:37;;;;;;;9.43;2.05;;;;;;;1.47;92.77;97287.91;1781853;80;20979;-39
2022/01/30 06:10:03;;;;;;;8.35;1.65;;;;;;;1.49;92.14;97280.92;1781728;80;20971;-43
2022/01/30 06:12:29;;;;;;;5.42;1.70;;;;;;;1.63;92.45;97274.19;1781598;80;20971;-40
2022/01/30 06:14:55;;;;;;;11.05;2.45;;;;;;;1.68;91.88;97265.26;1781711;80;21014;-39
2022/01/30 06:17:21;;;;;;;9.00;2.10;;;;;;;1.82;91.53;97261.95;1781755;80;20964;-39
2022/01/30 06:19:47;;;;;;;8.05;2.42;;;;;;;1.92;91.65;97267.02;1781761;80;21504;-40
2022/01/30 06:22:13;;;;;;;6.55;1.90;;;;;;;1.88;91.32;97256.44;1781735;80;21456;-40
2022/01/30 06:24:39;;;;;;;7.90;1.80;;;;;;;1.91;91.28;97253.70;1781830;80;21014;-40
2022/01/30 06:27:05;;;;;;;5.17;1.80;;;;;;;1.90;91.17;97271.45;1781800;80;21019;-39
2022/01/30 06:29:31;;;;;;;5.28;1.80;;;;;;;2.01;91.03;97232.00;1781774;80;21021;-39
2022/01/30 06:31:57;;;;;;;9.95;2.50;;;;;;;2.02;91.26;97255.72;1781748;80;21027;-39
2022/01/30 06:34:22;;;;;;;10.93;3.02;;;;;;;2.02;91.05;97249.23;1781736;80;20979;-40
2022/01/30 06:36:48;;;;;;;7.47;2.12;;;;;;;2.17;91.11;97218.22;1781805;80;21464;-40
2022/01/30 06:39:14;;;;;;;10.48;2.62;;;;;;;2.05;90.73;97270.27;1781797;80;21488;-40
2022/01/30 06:41:40;;;;;;;11.85;2.65;;;;;;;1.96;90.19;97224.09;1781740;80;20959;-40
2022/01/30 06:44:07;;;;;;;10.28;3.25;;;;;;;1.91;91.01;97208.34;1781645;80;20991;-40
2022/01/30 06:46:33;;;;;;;;;;;;;;;1.80;92.26;97196.85;1784396;80;20979;-40
2022/01/30 06:48:59;;;;;;;8.80;2.50;;;;;;;1.75;93.14;97188.05;1781749;80;20104;-40
2022/01/30 06:51:24;;;;;;;6.95;1.50;;;;;;;1.82;93.12;97185.50;1781746;80;20991;-40
2022/01/30 06:53:50;;;;;;;5.83;1.60;;;;;;;1.86;92.27;97155.91;1781769;80;21018;-41
2022/01/30 06:56:16;;;;;;;9.10;1.90;;;;;;;1.87;92.10;97160.62;1781972;80;20987;-40
2022/01/30 06:58:41;;;;;;;7.30;1.62;;;;;;;1.95;91.30;97206.85;1781813;80;20951;-40
2022/01/30 07:01:07;;;;;;;6.10;1.95;;;;;;;2.05;90.56;97174.34;1781558;80;20980;-40
2022/01/30 07:03:33;;;;;;;6.72;1.90;;;;;;;2.07;89.99;97181.13;1781371;80;20983;-40
2022/01/30 07:05:59;;;;;;;8.80;2.22;;;;;;;2.18;89.83;97180.51;1781653;80;21025;-40
2022/01/30 07:08:24;;;;;;;7.28;2.00;;;;;;;2.31;89.75;97171.62;1781543;80;21483;-40
2022/01/30 07:10:50;;;;;;;11.43;2.55;;;;;;;2.31;89.23;97184.59;1781561;80;21460;-40
2022/01/30 07:13:16;;;;;;;15.80;2.10;;;;;;;2.34;89.49;97161.52;1781616;80;20967;-40
2022/01/30 07:15:41;;;;;;;14.85;2.65;;;;;;;2.33;89.83;97155.94;1781613;80;20979;-40
2022/01/30 07:18:07;;;;;;;8.53;2.27;;;;;;;2.30;90.22;97183.73;1781573;80;20964;-40
2022/01/30 07:20:34;;;;;;;9.10;2.40;;;;;;;2.36;90.28;97172.64;1781621;80;20967;-40
2022/01/30 07:22:59;;;;;;;8.78;1.95;;;;;;;2.33;90.22;97156.80;1781718;80;21006;-40
2022/01/30 07:25:25;;;;;;;13.38;3.25;;;;;;;2.33;90.07;97152.05;1781649;80;21496;-40
2022/01/30 07:27:51;;;;;;;6.55;2.00;;;;;;;2.30;90.38;97156.97;1781664;80;20983;-40
2022/01/30 07:30:17;;;;;;;11.93;2.52;;;;;;;2.27;90.90;97187.81;1781657;80;20991;-40
2022/01/30 07:32:42;;;;;;;12.18;2.70;;;;;;;2.27;90.69;97169.66;1781613;80;21010;-40
2022/01/30 07:35:09;;;;;;;10.35;2.10;;;;;;;2.30;90.28;97171.23;1781585;80;21019;-40
2022/01/30 07:37:35;;;;;;;11.55;3.20;;;;;;;2.34;90.30;97183.56;1781615;80;20987;-40
2022/01/30 07:40:03;;;;;;;13.95;2.85;;;;;;;2.34;90.05;97168.83;1781922;80;20975;-40
2022/01/30 07:42:29;;;;;;;11.35;2.42;;;;;;;2.33;90.02;97187.92;1781658;80;20959;-40
2022/01/30 07:44:55;;;;;;;7.42;2.30;;;;;;;2.31;89.97;97202.73;1781574;80;20986;-40
2022/01/30 07:47:25;;;;;;;11.65;2.77;;;;;;;2.28;89.62;97201.13;1781569;80;20986;-40
2022/01/30 07:49:54;;;;;;;15.75;3.47;;;;;;;2.22;90.09;97191.11;1781570;80;21034;-40
2022/01/30 07:52:21;;;;;;;11.03;2.70;;;;;;;2.01;91.65;97180.62;1781582;80;20995;-40
2022/01/30 07:54:48;;;;;;;14.28;2.60;;;;;;;1.95;92.65;97222.41;1781772;80;20967;-40
2022/01/30 07:57:17;;;;;;;14.23;2.77;;;;;;;1.87;93.52;97222.39;1781752;80;20983;-40
2022/01/30 07:59:43;;;;;;;11.10;2.98;;;;;;;1.90;94.16;97207.95;1781681;80;21027;-40
2022/01/30 08:02:09;;;;;;;9.95;2.75;;;;;;;1.77;95.07;97177.60;1781419;80;20983;-40
2022/01/30 08:04:36;;;;;;;27.85;9.08;;;;;;;1.82;95.35;97201.05;1781644;80;20971;-40
2022/01/30 08:07:02;;;;;;;12.60;4.90;;;;;;;1.77;95.86;97204.34;1781570;80;21119;-39
2022/01/30 08:09:28;;;;;;;15.77;5.20;;;;;;;1.67;96.68;97213.52;1781817;80;20991;-39
2022/01/30 08:11:55;;;;;;;10.65;3.30;;;;;;;1.66;96.99;97193.72;1781567;80;21030;-39
2022/01/30 08:14:22;;;;;;;14.93;2.75;;;;;;;1.58;97.32;97226.48;1781706;80;20979;-39
2022/01/30 08:16:47;;;;;;;10.88;3.00;;;;;;;1.49;97.87;97203.22;1781549;80;20975;-39
2022/01/30 08:19:13;;;;;;;14.38;2.92;;;;;;;1.41;98.44;97210.53;1781671;80;21464;-39
2022/01/30 08:21:39;;;;;;;14.00;3.72;;;;;;;1.48;98.67;97211.89;1781644;80;21618;-40
2022/01/30 08:24:06;;;;;;;17.17;4.10;;;;;;;1.36;99.10;97228.52;1781566;80;20955;-40
2022/01/30 08:26:31;;;;;;;9.25;3.10;;;;;;;1.29;99.43;97241.80;1781548;80;20983;-40
2022/01/30 08:28:57;;;;;;;13.58;4.78;;;;;;;1.26;99.66;97254.05;1781540;80;20971;-40
2022/01/30 08:31:24;;;;;;;13.00;4.83;;;;;;;1.17;100.00;97253.23;1781615;80;20967;-40
2022/01/30 08:33:49;;;;;;;9.10;3.33;;;;;;;1.21;100.00;97257.33;1781573;80;21380;-40
2022/01/30 08:36:15;;;;;;;13.90;4.40;;;;;;;1.10;100.00;97256.10;1781599;80;21318;-40
2022/01/30 08:38:41;;;;;;;13.38;4.35;;;;;;;1.01;100.00;97277.27;1781752;80;21439;-40
2022/01/30 08:41:07;;;;;;;10.63;3.27;;;;;;;0.88;100.00;97295.14;1781583;80;20979;-40
2022/01/30 08:43:33;;;;;;;19.30;4.45;;;;;;;0.98;100.00;97272.23;1781474;80;21029;-40
2022/01/30 08:46:02;;;;;;;14.40;4.50;;;;;;;0.91;100.00;97278.61;1781565;80;20952;-40
2022/01/30 08:48:30;;;;;;;13.32;3.60;;;;;;;1.03;100.00;97294.02;1781553;80;20979;-40
2022/01/30 08:50:56;;;;;;;6.85;2.45;;;;;;;1.07;100.00;97289.06;1781497;80;21542;-40
2022/01/30 08:53:22;;;;;;;5.62;2.50;;;;;;;1.09;100.00;97311.39;1781593;80;20982;-40
2022/01/30 08:55:48;;;;;;;5.85;1.95;;;;;;;0.97;100.00;97309.39;1781521;80;20983;-39
2022/01/30 08:58:14;;;;;;;5.47;3.60;;;;;;;0.89;100.00;97288.20;1781516;80;20987;-39
2022/01/30 09:00:42;;;;;;;2.85;2.10;;;;;;;0.79;100.00;97307.70;1781564;80;20995;-39
2022/01/30 09:03:09;;;;;;;2.77;1.85;;;;;;;0.70;100.00;97298.15;1781539;80;21050;-39
2022/01/30 09:05:36;;;;;;;4.55;2.58;;;;;;;0.61;100.00;97297.30;1781746;80;21499;-39
2022/01/30 09:08:07;;;;;;;5.55;2.67;;;;;;;0.62;100.00;97292.95;1781775;80;20991;-40
2022/01/30 09:10:33;;;;;;;7.62;2.52;;;;;;;0.68;100.00;97287.05;1781193;80;21010;-39
2022/01/30 09:12:59;;;;;;;6.87;3.02;;;;;;;0.95;100.00;97290.05;1781269;80;21023;-39
2022/01/30 09:15:25;;;;;;;7.03;3.30;;;;;;;1.04;100.00;97279.71;1781575;80;20983;-39
2022/01/30 09:17:56;;;;;;;6.62;2.70;;;;;;;1.20;100.00;97295.77;1781643;80;21472;-40
2022/01/30 09:20:22;;;;;;;10.65;4.30;;;;;;;1.33;100.00;97305.92;1781601;80;20948;-40
2022/01/30 09:22:48;;;;;;;6.15;2.65;;;;;;;1.35;100.00;97297.61;1781529;80;20987;-40
2022/01/30 09:25:14;;;;;;;4.92;2.37;;;;;;;1.43;100.00;97297.22;1781460;80;20998;-40
2022/01/30 09:27:40;;;;;;;6.47;1.80;;;;;;;1.50;100.00;97292.11;1781663;80;21456;-39
2022/01/30 09:30:07;;;;;;;4.72;2.10;;;;;;;1.51;100.00;97312.77;1781506;80;20986;-39
2022/01/30 09:32:34;;;;;;;8.33;3.10;;;;;;;1.59;100.00;97302.47;1781648;80;20967;-39
2022/01/30 09:35:00;;;;;;;5.65;2.05;;;;;;;1.50;100.00;97294.70;1781872;80;20991;-39
2022/01/30 09:37:26;;;;;;;6.72;2.60;;;;;;;1.60;100.00;97298.95;1781492;80;20963;-39
2022/01/30 09:39:51;;;;;;;4.70;2.62;;;;;;;1.56;100.00;97308.63;1781613;80;20991;-39
2022/01/30 09:42:17;;;;;;;5.20;2.12;;;;;;;1.66;100.00;97300.78;1781802;80;21536;-39
2022/01/30 09:44:44;;;;;;;6.53;2.33;;;;;;;1.65;100.00;97269.30;1781580;80;20944;-39
2022/01/30 09:47:13;;;;;;;8.73;2.42;;;;;;;1.70;100.00;97284.61;1781900;80;20986;-39
2022/01/30 09:49:44;;;;;;;6.15;2.08;;;;;;;1.67;100.00;97275.27;1781160;80;20967;-39
2022/01/30 09:52:09;;;;;;;7.65;2.72;;;;;;;1.77;100.00;97311.89;1781465;80;21547;-40
2022/01/30 09:54:36;;;;;;;11.10;3.00;;;;;;;1.77;100.00;97270.42;1781442;80;20994;-40
2022/01/30 09:57:02;;;;;;;10.93;2.50;;;;;;;1.83;100.00;97278.34;1781445;80;21127;-40
2022/01/30 09:59:27;;;;;;;16.90;3.20;;;;;;;1.80;100.00;97287.13;1781430;80;21022;-39
2022/01/30 10:01:53;;;;;;;7.97;2.77;;;;;;;1.86;100.00;97272.53;1781331;80;20999;-39
2022/01/30 10:04:19;;;;;;;12.05;2.75;;;;;;;1.94;100.00;97285.55;1781801;80;20975;-39
2022/01/30 10:07:04;;;;;;;10.60;2.85;;;;;;;1.95;100.00;97266.03;1777256;80;21449;-40
2022/01/30 10:09:33;;;;;;;12.00;2.98;;;;;;;2.00;100.00;97271.81;1748979;80;21047;-40
2022/01/30 10:12:19;;;;;;;13.45;2.65;;;;;;;2.01;100.00;97287.73;1754047;80;20991;-40
2022/01/30 10:15:07;;;;;;;12.53;3.03;;;;;;;2.10;100.00;97266.97;1780735;80;21043;-39
2022/01/30 10:17:41;;;;;;;11.65;3.25;;;;;;;2.07;100.00;97274.91;1780539;80;21038;-40
2022/01/30 10:20:10;;;;;;;13.55;3.58;;;;;;;2.09;100.00;97269.17;1780746;80;21066;-40
2022/01/30 10:22:51;;;;;;;10.08;3.10;;;;;;;2.06;100.00;97270.66;1781015;80;21010;-39
2022/01/30 10:25:30;;;;;;;13.18;3.17;;;;;;;2.11;100.00;97251.77;1780131;79;21532;-40
2022/01/30 10:28:19;;;;;;;9.30;3.22;;;;;;;2.13;100.00;97254.28;1780621;80;21542;-39
2022/01/30 10:30:52;;;;;;;11.03;3.60;;;;;;;1.92;100.00;97286.45;1780433;80;21571;-39
2022/01/30 10:33:22;;;;;;;14.33;4.58;;;;;;;2.05;100.00;97276.74;1780705;80;21073;-40
2022/01/30 10:35:56;;;;;;;19.90;5.55;;;;;;;1.96;100.00;97283.24;1780462;80;21253;-40
2022/01/30 10:38:35;;;;;;;16.50;4.95;;;;;;;2.01;100.00;97283.02;1780816;80;21027;-41
2022/01/30 10:41:13;;;;;;;27.00;5.42;;;;;;;1.96;100.00;97287.13;1781836;79;21487;-40
2022/01/30 10:44:01;;;;;;;21.93;5.80;;;;;;;2.04;100.00;97267.31;1781982;79;21511;-41
2022/01/30 10:46:30;;;;;;;20.80;4.92;;;;;;;1.99;100.00;97274.48;1780754;80;20971;-41
2022/01/30 10:49:00;;;;;;;24.35;6.55;;;;;;;2.03;100.00;97268.22;1781730;80;21038;-41
2022/01/30 10:51:30;;;;;;;24.72;6.22;;;;;;;1.99;100.00;97286.16;1781746;80;20995;-40
2022/01/30 10:54:11;;;;;;;22.10;4.97;;;;;;;2.04;100.00;97281.56;1781693;80;21003;-40
2022/01/30 10:56:39;;;;;;;19.35;5.17;;;;;;;2.07;100.00;97283.98;1781767;80;21456;-40
2022/01/30 10:59:20;;;;;;;17.50;4.30;;;;;;;2.16;100.00;97286.55;1781679;80;21003;-42
2022/01/30 11:01:49;;;;;;;15.45;3.77;;;;;;;2.17;100.00;97294.72;1781068;80;21019;-43
2022/01/30 11:04:28;;;;;;;15.68;4.15;;;;;;;2.22;100.00;97300.03;1778426;80;21468;-40
2022/01/30 11:06:57;;;;;;;14.43;3.98;;;;;;;2.18;100.00;97293.31;1778446;81;20995;-40
2022/01/30 11:09:32;;;;;;;13.50;4.00;;;;;;;2.17;100.00;97316.28;1777458;81;21003;-40
2022/01/30 11:11:59;;;;;;;14.70;3.92;;;;;;;2.25;100.00;97313.28;1778279;79;21352;-40
2022/01/30 11:14:34;;;;;;;13.75;4.50;;;;;;;2.23;100.00;97329.39;1777921;79;21094;-39
2022/01/30 11:19:26;;;;;;;17.73;4.37;;;;;;;2.23;100.00;97328.09;1776896;80;22298;-40
2022/01/30 11:21:56;;;;;;;22.25;3.72;;;;;;;2.26;100.00;97324.88;1778397;80;21461;-40
2022/01/30 11:24:25;;;;;;;11.10;3.30;;;;;;;2.26;100.00;97330.53;1777612;81;20976;-41
2022/01/30 11:26:52;;;;;;;11.00;3.72;;;;;;;2.26;100.00;97331.36;1778549;81;21500;-41
2022/01/30 11:29:23;;;;;;;16.07;4.67;;;;;;;2.23;100.00;97370.87;1778714;80;21594;-40
2022/01/30 11:31:48;;;;;;;26.12;6.55;;;;;;;2.27;100.00;97342.56;1778411;79;21429;-40
2022/01/30 11:34:14;;;;;;;21.12;5.35;;;;;;;2.26;100.00;97351.28;1778574;81;21020;-40
2022/01/30 11:36:42;;;;;;;17.07;6.10;;;;;;;2.21;100.00;97357.98;1778372;80;20979;-41
2022/01/30 11:39:15;;;;;;;19.05;4.50;;;;;;;2.23;100.00;97371.71;1778391;81;20994;-41
2022/01/30 11:41:41;;;;;;;9.58;3.12;;;;;;;2.25;100.00;97395.80;1778478;80;20984;-40
2022/01/30 11:44:22;;;;;;;12.15;4.20;;;;;;;2.20;100.00;97382.70;1778490;80;21460;-40
2022/01/30 11:47:07;;;;;;;17.87;6.15;;;;;;;2.15;100.00;97390.73;1778379;81;20967;-40
2022/01/30 11:49:52;;;;;;;13.18;4.47;;;;;;;2.16;100.00;97389.80;1778440;81;20963;-41
2022/01/30 11:52:20;;;;;;;12.63;4.00;;;;;;;2.17;100.00;97378.99;1778386;80;20948;-41
2022/01/30 11:54:57;;;;;;;14.87;4.12;;;;;;;2.16;100.00;97391.09;1778601;81;20988;-41
2022/01/30 11:57:29;;;;;;;;;;;;;;;2.15;100.00;97406.30;1781146;79;21051;-41
2022/01/30 11:59:58;;;;;;;12.80;4.70;;;;;;;2.17;100.00;97415.30;1778594;80;20502;-41
2022/01/30 12:02:35;;;;;;;17.60;4.20;;;;;;;2.08;100.00;97418.72;1778589;80;21004;-41
2022/01/30 12:05:07;;;;;;;16.65;5.45;;;;;;;2.05;100.00;97415.45;1778586;80;20999;-41
2022/01/30 12:07:45;;;;;;;18.07;5.45;;;;;;;2.07;100.00;97445.59;1778584;81;21479;-40
2022/01/30 12:10:26;;;;;;;12.03;4.40;;;;;;;2.02;100.00;97442.38;1778583;79;20948;-40
2022/01/30 12:13:04;;;;;;;14.68;5.17;;;;;;;1.98;100.00;97447.78;1778587;81;21491;-40
2022/01/30 12:15:41;;;;;;;22.58;6.95;;;;;;;2.01;100.00;97461.90;1778603;80;21461;-40
2022/01/30 12:18:19;;;;;;;17.98;4.17;;;;;;;2.05;100.00;97467.30;1778523;80;21452;-40
2022/01/30 12:21:08;;;;;;;13.18;3.45;;;;;;;2.07;100.00;97495.28;1778655;80;20991;-42
2022/01/30 12:23:40;;;;;;;12.55;3.27;;;;;;;2.03;100.00;97476.91;1778514;79;20951;-40
2022/01/30 12:26:14;;;;;;;11.55;4.28;;;;;;;2.05;100.00;97488.05;1778533;80;20975;-40
2022/01/30 12:28:48;;;;;;;12.80;3.22;;;;;;;2.12;100.00;97486.83;1778503;79;21035;-41